63OH weather

White's Airport
Darbyville, Ohio, United States

Public forecast

Using degrees Fahrenheit for public forecast. Weather courtesy of forecast.io.

Closest aviation weather report (METAR) to White's Airport

Closest report is Rickenbacker International Airport, 10.2 nm (18.8 km) NE. Retrieved 2020/05/29 04:55 UTC (59 minutes ago):

KLCK 290455Z AUTO 18007KT SCT095 OVC120 23/17 A2993 RMK AO2 T02260168

Closest aviation forecast (TAF) to White's Airport

Closest forecast is Rickenbacker International Airport, 10.2 nm (18.8 km) NE. Retrieved 2020-05-29 00:27 UTC (5 hours ago):

TAF KLCK 282320Z 2900/2924 20006KT P6SM VCSH SCT040 BKN100 FM290700 19005KT P6SM SCT060 FM291300 22012KT P6SM BKN060 FM291600 22014G22KT P6SM VCSH BKN035 FM291800 23012G20KT P6SM VCTS BKN040CB FM292300 31012KT P6SM VCSH BKN060